createdAt,value
2023-05-15T00:00:01.764Z,984.8658
2023-05-15T00:01:03.857Z,984.8872
2023-05-15T00:02:01.683Z,984.9229
2023-05-15T00:03:02.330Z,984.8725
2023-05-15T00:04:01.594Z,984.8943
2023-05-15T00:05:02.154Z,984.859
2023-05-15T00:06:01.595Z,984.8943
2023-05-15T00:07:03.778Z,984.83
2023-05-15T00:08:01.510Z,984.78
2023-05-15T00:09:02.007Z,984.8859
2023-05-15T00:10:01.517Z,984.9355
2023-05-15T00:11:02.355Z,984.8859
2023-05-15T00:12:01.434Z,984.83
2023-05-15T00:13:01.942Z,984.78
2023-05-15T00:14:03.039Z,984.9078
2023-05-15T00:15:01.830Z,984.9641
2023-05-15T00:16:01.411Z,984.774
2023-05-15T00:17:01.851Z,984.7169
2023-05-15T00:18:02.438Z,984.6597
2023-05-15T00:19:01.813Z,984.6025
2023-05-15T00:20:02.234Z,984.774
2023-05-15T00:21:01.771Z,984.6946
2023-05-15T00:22:02.244Z,984.8413
2023-05-15T00:23:01.677Z,984.7437
2023-05-15T00:24:02.189Z,984.5869
2023-05-15T00:25:01.604Z,984.7437
2023-05-15T00:26:02.070Z,984.8106
2023-05-15T00:27:01.598Z,984.9031
2023-05-15T00:28:02.068Z,984.7634
2023-05-15T00:29:03.196Z,984.7888
2023-05-15T00:30:02.012Z,984.8312
2023-05-15T00:31:01.525Z,984.5553
2023-05-15T00:32:01.923Z,984.6474
2023-05-15T00:33:01.525Z,984.7117
2023-05-15T00:34:01.946Z,984.6175
2023-05-15T00:35:01.421Z,984.7858
2023-05-15T00:36:01.829Z,984.6023
2023-05-15T00:37:01.363Z,984.6108
2023-05-15T00:38:01.839Z,984.6965
2023-05-15T00:39:02.939Z,984.7167
2023-05-15T00:40:01.862Z,984.5737
2023-05-15T00:41:02.127Z,984.5098
2023-05-15T00:42:02.343Z,984.604
2023-05-15T00:43:02.336Z,984.604
2023-05-15T00:44:01.768Z,984.4611
2023-05-15T00:45:02.320Z,984.5183
2023-05-15T00:46:01.941Z,984.4678
2023-05-15T00:47:03.356Z,984.5178
2023-05-15T00:48:02.248Z,984.4897
2023-05-15T00:49:01.708Z,984.4258
2023-05-15T00:50:02.170Z,984.5549
2023-05-15T00:51:01.609Z,984.4271
2023-05-15T00:52:02.106Z,984.4405
2023-05-15T00:53:01.553Z,984.5347
2023-05-15T00:54:02.068Z,984.3082
2023-05-15T00:55:01.536Z,984.5869
2023-05-15T00:56:03.603Z,984.5869
2023-05-15T00:57:01.445Z,984.2578
2023-05-15T00:58:01.951Z,984.4579
2023-05-15T00:59:01.381Z,984.5869
2023-05-15T01:00:01.851Z,984.3435
2023-05-15T01:02:01.816Z,984.449
2023-05-15T01:03:02.411Z,984.2006
2023-05-15T01:04:01.783Z,984.3149
2023-05-15T01:05:02.240Z,984.2591
2023-05-15T01:06:01.698Z,984.4154
2023-05-15T01:07:02.210Z,984.3167
2023-05-15T01:08:01.680Z,984.3256
2023-05-15T01:09:02.269Z,984.3256
2023-05-15T01:10:01.610Z,984.2975
2023-05-15T01:11:02.086Z,984.2903
2023-05-15T01:12:01.548Z,984.2416
2023-05-15T01:13:03.667Z,984.2988
2023-05-15T01:14:03.203Z,984.1577
2023-05-15T01:15:02.015Z,984.1863
2023-05-15T01:16:01.453Z,984.2367
2023-05-15T01:17:01.946Z,984.2095
2023-05-15T01:18:01.462Z,984.3608
2023-05-15T01:19:02.048Z,984.2112
2023-05-15T01:20:01.432Z,984.2563
2023-05-15T01:21:01.887Z,984.1992
2023-05-15T01:22:02.325Z,984.2563
2023-05-15T01:23:01.792Z,984.1349
2023-05-15T01:24:02.250Z,984.3634
2023-05-15T01:25:01.765Z,984.2576
2023-05-15T01:26:02.240Z,984.2161
2023-05-15T01:27:01.685Z,984.2594
2023-05-15T01:28:02.197Z,984.2612
2023-05-15T01:29:01.617Z,984.2179
2023-05-15T01:30:02.178Z,984.2161
2023-05-15T01:31:01.623Z,984.2179
2023-05-15T01:32:02.130Z,984.2094
2023-05-15T01:33:01.651Z,984.3085
2023-05-15T01:34:03.702Z,984.1523
2023-05-15T01:35:03.204Z,984.2094
2023-05-15T01:36:02.016Z,984.2094
2023-05-15T01:37:01.433Z,984.238
2023-05-15T01:38:01.917Z,984.1318
2023-05-15T01:39:01.433Z,984.1523
2023-05-15T01:40:03.534Z,984.2576
2023-05-15T01:41:01.412Z,984.2862
2023-05-15T01:42:01.847Z,984.2514
2023-05-15T01:44:01.766Z,984.1523
2023-05-15T01:45:02.241Z,984.0751
2023-05-15T01:46:01.816Z,984.1889
2023-05-15T01:47:02.231Z,984.0751
2023-05-15T01:48:01.716Z,984.08
2023-05-15T01:49:02.163Z,984.2358
2023-05-15T01:50:01.639Z,984.1635
2023-05-15T01:51:02.176Z,984.1215
2023-05-15T01:52:01.599Z,984.1786
2023-05-15T01:53:02.090Z,984.1434
2023-05-15T01:54:03.196Z,984.2643
2023-05-15T01:55:02.245Z,984.0644
2023-05-15T01:56:01.853Z,984.1269
2023-05-15T01:57:01.563Z,984.0912
2023-05-15T01:58:01.933Z,984.2563
2023-05-15T01:59:01.453Z,984.0207
2023-05-15T02:00:01.971Z,984.0983
2023-05-15T02:01:03.055Z,984.1322
2023-05-15T02:02:01.871Z,984.184
2023-05-15T02:03:09.044Z,984.1371
2023-05-15T02:04:03.536Z,984.08
2023-05-15T02:05:02.235Z,984.0358
2023-05-15T02:06:01.695Z,984.093
2023-05-15T02:07:02.182Z,983.989
2023-05-15T02:08:01.643Z,984.0541
2023-05-15T02:09:02.084Z,984.0274
2023-05-15T02:10:01.613Z,983.9417
2023-05-15T02:11:02.092Z,984.105
2023-05-15T02:12:01.541Z,984.026
2023-05-15T02:13:02.013Z,984.0274
2023-05-15T02:14:01.444Z,984.0274
2023-05-15T02:15:01.939Z,984.0073
2023-05-15T02:16:01.402Z,983.923
2023-05-15T02:17:01.906Z,983.9681
2023-05-15T02:18:01.378Z,983.911
2023-05-15T02:19:01.881Z,983.9395
2023-05-15T02:20:03.997Z,983.8035
2023-05-15T02:21:01.769Z,983.7821
2023-05-15T02:22:02.254Z,983.8758
2023-05-15T02:23:01.680Z,983.9766
2023-05-15T02:24:02.177Z,984.2067
2023-05-15T02:25:01.733Z,984.0163
2023-05-15T02:26:02.166Z,984.1224
2023-05-15T02:27:01.616Z,983.953
2023-05-15T02:28:02.097Z,983.9044
2023-05-15T02:29:01.543Z,983.9258
2023-05-15T02:30:02.034Z,983.9178
2023-05-15T02:31:01.459Z,983.9111
2023-05-15T02:32:01.967Z,983.953
2023-05-15T02:33:03.164Z,983.9882
2023-05-15T02:34:01.947Z,984.0163
2023-05-15T02:35:01.392Z,983.953
2023-05-15T02:36:01.885Z,983.6762
2023-05-15T02:37:02.331Z,983.9829
2023-05-15T02:38:01.796Z,983.8706
2023-05-15T02:39:02.253Z,983.8924
2023-05-15T02:40:01.703Z,983.8487
2023-05-15T02:41:02.196Z,983.7983
2023-05-15T02:42:01.705Z,983.6642
2023-05-15T02:43:02.185Z,983.8791
2023-05-15T02:44:01.616Z,983.6861
2023-05-15T02:45:02.090Z,983.6923
2023-05-15T02:46:03.290Z,983.8068
2023-05-15T02:47:03.686Z,983.7008
2023-05-15T02:48:03.309Z,983.8015
2023-05-15T02:49:01.929Z,983.9726
2023-05-15T02:50:03.050Z,983.6874
2023-05-15T02:51:03.554Z,983.8015
2023-05-15T02:52:01.376Z,983.8586
2023-05-15T02:53:01.860Z,983.5547
2023-05-15T02:54:03.970Z,983.6702
2023-05-15T02:55:03.442Z,983.7628
2023-05-15T02:56:02.251Z,983.7125
2023-05-15T02:57:01.704Z,983.7842
2023-05-15T02:58:03.846Z,983.692
2023-05-15T02:59:01.604Z,983.729
2023-05-15T03:00:02.081Z,983.786
2023-05-15T03:01:01.762Z,983.6368
2023-05-15T03:02:02.192Z,983.729
2023-05-15T03:03:01.647Z,983.6168
2023-05-15T03:04:02.125Z,983.4695
2023-05-15T03:05:01.604Z,983.6049
2023-05-15T03:06:02.101Z,983.4923
2023-05-15T03:07:01.554Z,983.5782
2023-05-15T03:08:02.008Z,983.5716
2023-05-15T03:09:01.450Z,983.5431
2023-05-15T03:10:01.918Z,983.657
2023-05-15T03:11:03.128Z,983.5511
2023-05-15T03:12:01.947Z,983.4656
2023-05-15T03:13:01.347Z,983.5529
2023-05-15T03:14:01.834Z,983.5107
2023-05-15T03:15:03.048Z,983.3687
2023-05-15T03:16:01.846Z,983.5681
2023-05-15T03:17:04.084Z,983.4257
2023-05-15T03:18:01.783Z,983.4257
2023-05-15T03:19:03.954Z,983.5913
2023-05-15T03:20:03.355Z,983.5206
2023-05-15T03:21:02.258Z,983.4792
2023-05-15T03:22:03.391Z,983.5291
2023-05-15T03:23:03.836Z,983.4018
2023-05-15T03:24:01.604Z,983.5086
2023-05-15T03:25:02.095Z,983.6377
2023-05-15T03:26:01.610Z,983.6729
2023-05-15T03:27:02.091Z,983.3059
2023-05-15T03:28:03.210Z,983.6377
2023-05-15T03:29:02.025Z,983.5674
2023-05-15T03:30:01.513Z,983.3429
2023-05-15T03:31:02.069Z,983.5323
2023-05-15T03:32:01.463Z,983.2926
2023-05-15T03:33:02.024Z,983.6026
2023-05-15T03:34:01.444Z,983.434
2023-05-15T03:35:01.925Z,983.434
2023-05-15T03:36:01.358Z,983.5608
2023-05-15T03:37:01.864Z,983.4269
2023-05-15T03:38:01.371Z,983.4838
2023-05-15T03:39:03.442Z,983.35
2023-05-15T03:40:02.353Z,983.4221
2023-05-15T03:41:01.755Z,983.4724
2023-05-15T03:42:02.266Z,983.4088
2023-05-15T03:43:01.669Z,983.3049
2023-05-15T03:44:03.826Z,983.4088
2023-05-15T03:45:01.681Z,983.3049
2023-05-15T03:46:02.245Z,983.4003
2023-05-15T03:47:01.746Z,983.4572
2023-05-15T03:48:02.109Z,983.4136
2023-05-15T03:49:01.590Z,983.3851
2023-05-15T03:50:02.075Z,983.3315
2023-05-15T03:51:01.522Z,983.3315
2023-05-15T03:52:02.008Z,983.4705
2023-05-15T03:53:01.543Z,983.3315
2023-05-15T03:54:03.695Z,983.5493
2023-05-15T03:55:01.492Z,983.4439
2023-05-15T03:56:01.919Z,983.3585
2023-05-15T03:57:03.027Z,983.3249
2023-05-15T03:58:01.942Z,983.4287
2023-05-15T03:59:01.364Z,983.35
2023-05-15T04:00:03.511Z,983.4207
2023-05-15T04:01:01.361Z,983.4558
2023-05-15T04:02:05.510Z,983.3989
2023-05-15T04:03:02.517Z,983.4269
2023-05-15T04:04:03.447Z,983.3315
2023-05-15T04:05:02.264Z,983.2964
2023-05-15T04:06:04.457Z,983.3315
2023-05-15T04:07:02.241Z,983.3566
2023-05-15T04:08:01.687Z,983.4136
2023-05-15T04:09:02.150Z,983.2964
2023-05-15T04:10:01.627Z,983.3566
2023-05-15T04:11:02.090Z,983.2964
2023-05-15T04:12:03.213Z,983.3785
2023-05-15T04:13:02.010Z,983.3566
2023-05-15T04:14:01.440Z,983.4136
2023-05-15T04:15:01.909Z,983.3785
2023-05-15T04:16:01.376Z,983.3851
2023-05-15T04:17:01.875Z,983.3637
2023-05-15T04:18:01.375Z,983.4492
2023-05-15T04:19:01.898Z,983.4269
2023-05-15T04:20:02.239Z,983.4972
2023-05-15T04:21:03.454Z,983.5323
2023-05-15T04:22:02.250Z,983.6026
2023-05-15T04:23:03.349Z,983.6377
2023-05-15T04:24:03.830Z,983.3126
2023-05-15T04:25:01.771Z,983.3947
2023-05-15T04:26:02.066Z,983.4654
2023-05-15T04:27:01.582Z,983.325
2023-05-15T04:28:03.667Z,983.3534
2023-05-15T04:29:04.363Z,983.3496
2023-05-15T04:30:01.935Z,983.3701
2023-05-15T04:31:01.435Z,983.427
2023-05-15T04:32:01.964Z,983.5681
2023-05-15T04:33:01.429Z,983.3502
2023-05-15T04:34:01.834Z,983.3217
2023-05-15T04:35:01.363Z,983.3687
2023-05-15T04:36:01.843Z,983.1503
2023-05-15T04:37:02.333Z,983.3065
2023-05-15T04:38:03.430Z,983.2847
2023-05-15T04:39:02.241Z,983.3132
2023-05-15T04:40:01.710Z,983.2562
2023-05-15T04:41:03.827Z,983.1488
2023-05-15T04:42:01.693Z,983.2761
2023-05-15T04:43:02.158Z,983.2747
2023-05-15T04:44:03.280Z,983.2382
2023-05-15T04:45:02.080Z,983.3223
2023-05-15T04:46:01.635Z,983.3218
2023-05-15T04:47:02.112Z,983.3531
2023-05-15T04:48:01.547Z,983.1707
2023-05-15T04:49:02.001Z,983.2125
2023-05-15T04:50:01.534Z,983.2829
2023-05-15T04:51:01.995Z,983.3314
2023-05-15T04:52:01.449Z,983.3837
2023-05-15T04:53:01.944Z,983.186
2023-05-15T04:54:01.442Z,983.3267
2023-05-15T04:55:01.944Z,983.2331
2023-05-15T04:56:01.360Z,983.2744
2023-05-15T04:57:01.837Z,983.3015
2023-05-15T04:58:01.378Z,983.2359
2023-05-15T04:59:01.831Z,983.1989
2023-05-15T05:00:02.307Z,983.3587
2023-05-15T05:01:04.366Z,983.2883
2023-05-15T05:02:03.406Z,983.2864
2023-05-15T05:03:03.728Z,983.2565
2023-05-15T05:04:01.470Z,983.2261
2023-05-15T05:05:03.773Z,983.2246
2023-05-15T05:06:01.752Z,983.3089
2023-05-15T05:07:02.234Z,983.3675
2023-05-15T05:08:01.909Z,983.1761
2023-05-15T05:09:01.484Z,983.2242
2023-05-15T05:10:03.602Z,983.3014
2023-05-15T05:11:01.504Z,983.2076
2023-05-15T05:12:01.920Z,983.3071
2023-05-15T05:13:01.361Z,983.3743
2023-05-15T05:14:01.837Z,983.3643
2023-05-15T05:15:02.314Z,983.3691
2023-05-15T05:16:01.929Z,983.221
2023-05-15T05:17:03.837Z,983.4306
2023-05-15T05:18:01.763Z,983.282
2023-05-15T05:19:03.885Z,983.2958
2023-05-15T05:20:03.337Z,983.2935
2023-05-15T05:21:03.762Z,983.366
2023-05-15T05:22:03.192Z,983.2683
2023-05-15T05:23:03.698Z,983.2855
2023-05-15T05:24:01.438Z,983.2269
2023-05-15T05:25:01.941Z,983.1811
2023-05-15T05:26:01.858Z,983.2064
2023-05-15T05:27:03.520Z,983.2198
2023-05-15T05:28:02.363Z,983.132
2023-05-15T05:29:01.791Z,983.1778
2023-05-15T05:30:02.320Z,983.217
2023-05-15T05:31:03.381Z,983.2552
2023-05-15T05:32:02.260Z,983.0447
2023-05-15T05:33:01.632Z,983.0633
2023-05-15T05:34:02.092Z,983.2391
2023-05-15T05:35:03.315Z,982.9945
2023-05-15T05:36:02.096Z,983.0705
2023-05-15T05:37:01.553Z,983.0838
2023-05-15T05:38:02.022Z,983.06
2023-05-15T05:39:01.425Z,983.0867
2023-05-15T05:40:01.926Z,983.2354
2023-05-15T05:41:01.392Z,983.0533
2023-05-15T05:42:01.843Z,983.1647
2023-05-15T05:43:01.374Z,983.1561
2023-05-15T05:44:01.778Z,983.0241
2023-05-15T05:45:02.253Z,983.0212
2023-05-15T05:46:01.800Z,983.1915
2023-05-15T05:47:03.893Z,983.0748
2023-05-15T05:48:03.445Z,983.0925
2023-05-15T05:49:02.156Z,983.2409
2023-05-15T05:50:01.617Z,983.226
2023-05-15T05:51:02.099Z,983.1246
2023-05-15T05:52:01.521Z,982.9498
2023-05-15T05:53:01.997Z,982.8483
2023-05-15T05:54:01.447Z,982.9603
2023-05-15T05:55:01.921Z,982.9891
2023-05-15T05:56:01.463Z,982.979
2023-05-15T05:57:01.930Z,983.0839
2023-05-15T05:58:02.238Z,982.9603
2023-05-15T05:59:01.885Z,982.8932
2023-05-15T06:00:02.319Z,982.9689
2023-05-15T06:01:03.457Z,983.1241
2023-05-15T06:02:02.313Z,982.9784
2023-05-15T06:03:01.905Z,982.9703
2023-05-15T06:04:02.343Z,983.1889
2023-05-15T06:05:01.705Z,983.0489
2023-05-15T06:06:02.099Z,983.0666
2023-05-15T06:07:01.624Z,982.95
2023-05-15T06:08:02.099Z,983.0786
2023-05-15T06:09:01.529Z,982.9481
2023-05-15T06:10:02.004Z,982.9116
2023-05-15T06:11:01.453Z,983.0436
2023-05-15T06:12:01.957Z,983.1501
2023-05-15T06:13:01.413Z,982.9869
2023-05-15T06:14:01.850Z,983.0056
2023-05-15T06:15:01.381Z,982.8673
2023-05-15T06:16:01.869Z,983.1877
2023-05-15T06:17:02.613Z,982.8244
2023-05-15T06:18:02.297Z,982.9229
2023-05-15T06:19:01.720Z,982.9023
2023-05-15T06:20:02.097Z,982.9671
2023-05-15T06:21:01.529Z,983.0873
2023-05-15T06:22:03.678Z,982.894
2023-05-15T06:23:03.139Z,983.0262
2023-05-15T06:24:03.597Z,982.8093
2023-05-15T06:25:01.364Z,982.9752
2023-05-15T06:26:01.852Z,982.8959
2023-05-15T06:27:02.350Z,982.9146
2023-05-15T06:28:03.472Z,982.9771
2023-05-15T06:29:02.270Z,982.8925
2023-05-15T06:30:01.695Z,982.9146
2023-05-15T06:31:03.942Z,982.791
2023-05-15T06:32:03.302Z,982.8905
2023-05-15T06:33:02.111Z,982.9483
2023-05-15T06:34:01.546Z,982.9872
2023-05-15T06:35:01.991Z,983.1239
2023-05-15T06:36:01.533Z,983.0031
2023-05-15T06:37:02.006Z,982.8211
2023-05-15T06:38:01.448Z,982.9529
2023-05-15T06:39:01.925Z,982.6936
2023-05-15T06:40:01.411Z,982.95
2023-05-15T06:41:03.525Z,982.7901
2023-05-15T06:42:01.406Z,982.897
2023-05-15T06:43:01.853Z,982.819
2023-05-15T06:44:03.908Z,982.7852
2023-05-15T06:45:01.768Z,982.897
2023-05-15T06:46:02.290Z,982.8715
2023-05-15T06:47:01.934Z,982.7228
2023-05-15T06:48:02.264Z,982.6905
2023-05-15T06:49:01.603Z,982.8786
2023-05-15T06:50:02.082Z,982.6477
2023-05-15T06:51:01.547Z,982.6767
2023-05-15T06:52:01.989Z,982.68
2023-05-15T06:53:01.455Z,982.7911
2023-05-15T06:54:01.953Z,982.795
2023-05-15T06:55:01.433Z,982.6612
2023-05-15T06:56:03.549Z,982.7109
2023-05-15T06:57:01.360Z,982.6403
2023-05-15T06:58:01.822Z,982.7343
2023-05-15T06:59:02.321Z,982.5488
2023-05-15T07:00:03.425Z,982.6959
2023-05-15T07:01:02.271Z,982.5793
2023-05-15T07:02:01.736Z,982.6403
2023-05-15T07:03:02.206Z,982.6819
2023-05-15T07:04:01.611Z,982.5777
2023-05-15T07:05:02.221Z,982.6079
2023-05-15T07:06:03.276Z,982.569
2023-05-15T07:07:02.134Z,982.65
2023-05-15T07:08:01.540Z,982.7851
2023-05-15T07:09:03.677Z,982.7168
2023-05-15T07:10:01.510Z,982.569
2023-05-15T07:11:01.925Z,982.6405
2023-05-15T07:12:01.468Z,982.667
2023-05-15T07:13:03.599Z,982.6559
2023-05-15T07:14:01.348Z,982.6222
2023-05-15T07:15:03.537Z,982.6504
2023-05-15T07:16:01.369Z,982.6745
2023-05-15T07:17:01.974Z,982.6629
2023-05-15T07:18:04.019Z,982.4364
2023-05-15T07:19:01.880Z,982.5368
2023-05-15T07:20:03.926Z,982.6629
2023-05-15T07:21:01.695Z,982.4801
2023-05-15T07:22:03.486Z,982.4714
2023-05-15T07:23:01.840Z,982.5875
2023-05-15T07:24:02.337Z,982.6222
2023-05-15T07:25:01.774Z,982.3507
2023-05-15T07:26:02.238Z,982.6181
2023-05-15T07:27:01.680Z,982.609
2023-05-15T07:28:02.164Z,982.5246
2023-05-15T07:29:01.677Z,982.4337
2023-05-15T07:30:02.089Z,982.5153
2023-05-15T07:31:02.821Z,982.601
2023-05-15T07:32:02.147Z,982.6629
2023-05-15T07:33:01.574Z,982.6629
2023-05-15T07:34:03.679Z,982.5673
2023-05-15T07:35:03.120Z,982.4681
2023-05-15T07:36:01.933Z,982.6312
2023-05-15T07:37:01.378Z,982.5786
2023-05-15T07:38:01.889Z,982.4047
2023-05-15T07:39:01.364Z,982.3929
2023-05-15T07:40:01.895Z,982.4904
2023-05-15T07:41:03.921Z,982.4096
2023-05-15T07:42:01.788Z,982.5261
2023-05-15T07:43:02.252Z,982.5601
2023-05-15T07:44:03.366Z,982.5446
2023-05-15T07:45:03.867Z,982.4851
2023-05-15T07:46:01.627Z,982.5601
2023-05-15T07:47:02.092Z,982.4134
2023-05-15T07:48:01.558Z,982.4087
2023-05-15T07:49:02.075Z,982.357
2023-05-15T07:50:03.117Z,982.3622
2023-05-15T07:51:03.590Z,982.5548
2023-05-15T07:52:01.346Z,982.4204
2023-05-15T07:53:01.857Z,982.7088
2023-05-15T07:54:01.362Z,982.5396
2023-05-15T07:55:01.859Z,982.3906
2023-05-15T07:56:02.322Z,982.3311
2023-05-15T07:57:01.757Z,982.3923
2023-05-15T07:58:03.928Z,982.2763
2023-05-15T07:59:01.793Z,982.2832
2023-05-15T08:00:03.836Z,982.3277
2023-05-15T08:01:01.634Z,982.4116
2023-05-15T08:02:02.101Z,982.3223
2023-05-15T08:03:03.267Z,982.3343
2023-05-15T08:04:02.112Z,982.3738
2023-05-15T08:05:01.433Z,982.3269
2023-05-15T08:06:01.919Z,982.3562
2023-05-15T08:07:01.439Z,982.5082
2023-05-15T08:08:01.846Z,982.3291
2023-05-15T08:09:01.415Z,982.4128
2023-05-15T08:10:01.874Z,982.306
2023-05-15T08:11:02.326Z,982.4801
2023-05-15T08:12:01.751Z,982.431
2023-05-15T08:13:02.272Z,982.3282
2023-05-15T08:14:01.728Z,982.431
2023-05-15T08:15:03.832Z,982.1811
2023-05-15T08:16:01.682Z,982.4769
2023-05-15T08:17:03.845Z,982.2058
2023-05-15T08:18:01.687Z,982.267
2023-05-15T08:19:03.779Z,982.1384
2023-05-15T08:20:01.520Z,982.2496
2023-05-15T08:21:02.989Z,982.2491
2023-05-15T08:22:01.445Z,982.1848
2023-05-15T08:23:03.590Z,982.1205
2023-05-15T08:24:01.377Z,982.1684
2023-05-15T08:25:01.842Z,982.121
2023-05-15T08:26:02.338Z,982.1995
2023-05-15T08:27:03.439Z,982.105
2023-05-15T08:28:02.245Z,982.1566
2023-05-15T08:29:02.153Z,982.1577
2023-05-15T08:30:01.844Z,982.1984
2023-05-15T08:31:02.358Z,982.1258
2023-05-15T08:32:01.751Z,982.1584
2023-05-15T08:33:02.284Z,982.2518
2023-05-15T08:34:01.763Z,982.2868
2023-05-15T08:35:02.244Z,982.3191
2023-05-15T08:36:03.418Z,981.9871
2023-05-15T08:37:02.152Z,982.1373
2023-05-15T08:38:01.603Z,982.113
2023-05-15T08:39:02.072Z,981.9914
2023-05-15T08:40:03.195Z,982.019
2023-05-15T08:41:01.991Z,982.1044
2023-05-15T08:42:03.142Z,982.2273
2023-05-15T08:43:01.908Z,982.0935
2023-05-15T08:44:01.425Z,982.2051
2023-05-15T08:45:02.064Z,982.2125
2023-05-15T08:46:01.367Z,982.1354
2023-05-15T08:47:01.880Z,982.1422
2023-05-15T08:48:01.494Z,982.2455
2023-05-15T08:49:01.895Z,982.1012
2023-05-15T08:50:02.264Z,982.0903
2023-05-15T08:51:03.436Z,982.0387
2023-05-15T08:52:02.151Z,982.0728
2023-05-15T08:53:01.688Z,981.9955
2023-05-15T08:54:03.766Z,982.0306
2023-05-15T08:55:01.658Z,982.1044
2023-05-15T08:56:03.689Z,981.9601
2023-05-15T08:57:01.516Z,981.8952
2023-05-15T08:58:02.001Z,982.068
2023-05-15T08:59:01.444Z,981.8947
2023-05-15T09:00:01.958Z,981.8342
2023-05-15T09:01:01.364Z,981.8942
2023-05-15T09:02:01.918Z,981.8326
2023-05-15T09:03:03.125Z,981.9812
2023-05-15T09:04:01.915Z,981.9124
2023-05-15T09:05:04.008Z,981.9603
2023-05-15T09:06:01.763Z,982.1541
2023-05-15T09:07:02.240Z,981.9071
2023-05-15T09:08:01.685Z,982.1003
2023-05-15T09:09:02.277Z,981.956
2023-05-15T09:10:03.365Z,981.8894
2023-05-15T09:11:02.175Z,982.0148
2023-05-15T09:12:01.610Z,981.8878
2023-05-15T09:13:02.079Z,981.7983
2023-05-15T09:14:01.602Z,981.9629
2023-05-15T09:15:03.754Z,981.9441
2023-05-15T09:16:01.533Z,981.9045
2023-05-15T09:17:02.257Z,981.88
2023-05-15T09:18:03.141Z,981.9124
2023-05-15T09:19:01.955Z,981.9019
2023-05-15T09:20:01.368Z,981.8076
2023-05-15T09:21:01.893Z,981.8644
2023-05-15T09:22:01.361Z,981.817
2023-05-15T09:23:01.868Z,981.9144
2023-05-15T09:24:02.358Z,981.7613
2023-05-15T09:25:03.449Z,981.9071
2023-05-15T09:26:02.246Z,981.8165
2023-05-15T09:27:01.675Z,981.7748
2023-05-15T09:28:02.176Z,981.853
2023-05-15T09:29:01.678Z,981.9852
2023-05-15T09:30:03.842Z,981.9566
2023-05-15T09:31:01.612Z,981.9222
2023-05-15T09:32:02.166Z,982.0044
2023-05-15T09:33:01.669Z,981.8535
2023-05-15T09:34:02.102Z,981.8274
2023-05-15T09:35:02.592Z,981.8352
2023-05-15T09:36:02.235Z,981.8045
2023-05-15T09:37:01.683Z,981.9765
2023-05-15T09:38:02.199Z,981.9348
2023-05-15T09:39:01.625Z,981.9014
2023-05-15T09:40:02.080Z,981.7504
2023-05-15T09:41:01.598Z,981.9566
2023-05-15T09:42:03.678Z,981.7847
2023-05-15T09:43:03.164Z,981.7654
2023-05-15T09:44:03.593Z,981.8196
2023-05-15T09:45:01.448Z,981.9264
2023-05-15T09:46:02.039Z,981.9113
2023-05-15T09:47:01.469Z,981.7264
2023-05-15T09:48:01.986Z,981.8363
2023-05-15T09:49:03.932Z,981.8274
2023-05-15T09:50:01.770Z,981.8884
2023-05-15T09:51:03.837Z,981.9348
2023-05-15T09:52:01.740Z,981.8629
2023-05-15T09:53:02.154Z,981.8436
2023-05-15T09:54:01.609Z,981.9228
2023-05-15T09:55:02.170Z,981.7675
2023-05-15T09:56:01.537Z,981.7556
2023-05-15T09:57:03.678Z,981.7743
2023-05-15T09:58:01.524Z,981.7623
2023-05-15T09:59:01.931Z,981.9321
2023-05-15T10:00:01.455Z,981.7811
2023-05-15T10:01:01.990Z,981.7952
2023-05-15T10:02:03.080Z,981.9066
2023-05-15T10:03:03.570Z,981.6936
2023-05-15T10:04:02.328Z,981.7952
2023-05-15T10:05:01.860Z,981.8879
2023-05-15T10:06:02.323Z,981.7133
2023-05-15T10:07:01.679Z,981.7613
2023-05-15T10:08:02.163Z,981.8092
2023-05-15T10:09:03.299Z,981.6685
2023-05-15T10:10:02.082Z,981.8045
2023-05-15T10:11:03.244Z,981.7268
2023-05-15T10:12:03.694Z,981.6829
2023-05-15T10:13:01.445Z,981.745
2023-05-15T10:14:01.925Z,981.7194
2023-05-15T10:15:03.119Z,981.6912
2023-05-15T10:16:03.795Z,981.6792
2023-05-15T10:17:02.974Z,981.6949
2023-05-15T10:18:01.867Z,981.6813
2023-05-15T10:19:03.559Z,981.6245
2023-05-15T10:20:01.772Z,981.6109
2023-05-15T10:21:02.241Z,981.7507
2023-05-15T10:22:01.685Z,981.8331
2023-05-15T10:23:02.188Z,981.902
2023-05-15T10:24:01.621Z,981.6392
2023-05-15T10:25:02.075Z,981.8597
2023-05-15T10:26:01.515Z,981.6997
2023-05-15T10:27:03.673Z,981.7477
2023-05-15T10:28:03.226Z,981.7581
2023-05-15T10:29:02.002Z,981.9348
2023-05-15T10:30:01.493Z,981.89
2023-05-15T10:31:01.986Z,981.6393
2023-05-15T10:32:03.052Z,981.7305
2023-05-15T10:33:03.577Z,981.7613
2023-05-15T10:34:02.390Z,981.7003
2023-05-15T10:35:01.770Z,981.7295
2023-05-15T10:36:02.250Z,981.8675
2023-05-15T10:37:01.705Z,981.6841
2023-05-15T10:38:02.176Z,981.643
2023-05-15T10:39:03.361Z,981.7274
2023-05-15T10:40:02.179Z,981.4791
2023-05-15T10:41:16.514Z,981.8488
2023-05-15T10:42:01.394Z,981.6909
2023-05-15T10:43:03.512Z,981.6565
2023-05-15T10:44:02.324Z,981.7821
2023-05-15T10:45:01.776Z,981.6206
2023-05-15T10:46:02.248Z,981.6654
2023-05-15T10:47:01.810Z,981.6107
2023-05-15T10:48:02.353Z,981.6997
2023-05-15T10:49:01.605Z,981.6438
2023-05-15T10:50:02.077Z,981.7778
2023-05-15T10:51:01.557Z,981.7731
2023-05-15T10:52:02.013Z,981.6327
2023-05-15T10:53:03.224Z,981.6895
2023-05-15T10:54:02.011Z,981.5115
2023-05-15T10:55:03.115Z,981.6185
2023-05-15T10:56:02.014Z,981.6978
2023-05-15T10:57:01.374Z,981.5593
2023-05-15T10:58:01.860Z,981.5625
2023-05-15T10:59:01.370Z,981.5803
2023-05-15T11:00:01.798Z,981.5377
2023-05-15T11:01:36.277Z,981.6598
2023-05-15T11:02:03.508Z,981.5564
2023-05-15T11:03:02.267Z,981.608
2023-05-15T11:04:01.881Z,981.4514
2023-05-15T11:05:01.392Z,981.6215
2023-05-15T11:06:02.017Z,981.608
2023-05-15T11:07:01.535Z,981.6738
2023-05-15T11:08:03.689Z,981.6361
2023-05-15T11:09:01.722Z,981.5462
2023-05-15T11:10:03.685Z,981.3945
2023-05-15T11:11:01.802Z,981.4027
2023-05-15T11:12:03.230Z,981.4266
2023-05-15T11:13:02.090Z,981.311
2023-05-15T11:14:01.539Z,981.4305
2023-05-15T11:15:02.102Z,981.4366
2023-05-15T11:16:01.613Z,981.4177
2023-05-15T11:17:02.172Z,981.4448
2023-05-15T11:18:01.627Z,981.4866
2023-05-15T11:19:02.175Z,981.2432
2023-05-15T11:20:01.716Z,981.4148
2023-05-15T11:21:02.199Z,981.287
2023-05-15T11:22:03.392Z,981.4078
2023-05-15T11:23:01.447Z,981.2576
2023-05-15T11:24:02.092Z,981.3817
2023-05-15T11:25:03.394Z,981.3453
2023-05-15T11:26:03.912Z,981.3862
2023-05-15T11:27:03.376Z,981.487
2023-05-15T11:28:01.365Z,981.3989
2023-05-15T11:29:03.847Z,981.3538
2023-05-15T11:30:01.861Z,981.4455
2023-05-15T11:31:01.600Z,981.4432
2023-05-15T11:32:02.168Z,981.3268
2023-05-15T11:33:01.782Z,981.3268
2023-05-15T11:34:03.042Z,981.4177
2023-05-15T11:35:03.524Z,981.3787
2023-05-15T11:36:01.412Z,981.332
2023-05-15T11:37:01.377Z,981.2508
2023-05-15T11:38:03.982Z,981.2815
2023-05-15T11:39:01.761Z,981.1618
2023-05-15T11:41:02.103Z,981.2237
2023-05-15T11:42:01.978Z,981.2734
2023-05-15T11:43:01.520Z,981.3694
2023-05-15T11:44:03.756Z,981.3539
2023-05-15T11:45:01.598Z,981.7201
2023-05-15T11:46:03.770Z,981.5064
2023-05-15T11:47:01.583Z,981.3472
2023-05-15T11:48:02.095Z,981.4596
2023-05-15T11:49:03.110Z,981.3667
2023-05-15T11:50:03.604Z,981.4154